createdAt,value
2022-08-26T00:02:04.672Z,45.22
2022-08-26T00:04:34.959Z,45.24
2022-08-26T00:07:05.336Z,45.21
2022-08-26T00:09:37.334Z,45.47
2022-08-26T00:12:14.056Z,45.53
2022-08-26T00:14:46.706Z,45.66
2022-08-26T00:17:24.679Z,46.05
2022-08-26T00:19:55.692Z,45.81
2022-08-26T00:22:24.451Z,45.93
2022-08-26T00:24:53.058Z,46.25
2022-08-26T00:27:23.038Z,45.93
2022-08-26T00:29:51.715Z,46.15
2022-08-26T00:32:20.325Z,46.28
2022-08-26T00:34:48.671Z,46.38
2022-08-26T00:37:18.518Z,46.29
2022-08-26T00:39:47.166Z,46.50
2022-08-26T00:42:15.891Z,46.67
2022-08-26T00:44:46.225Z,46.91
2022-08-26T00:47:24.142Z,47.17
2022-08-26T00:49:53.197Z,47.08
2022-08-26T00:52:24.438Z,47.18
2022-08-26T00:55:00.237Z,47.55
2022-08-26T00:57:28.955Z,47.35
2022-08-26T01:00:01.542Z,47.61
2022-08-26T01:02:31.609Z,47.57
2022-08-26T01:05:04.006Z,47.87
2022-08-26T01:07:34.807Z,48.02
2022-08-26T01:10:06.665Z,48.20
2022-08-26T01:12:41.571Z,47.97
2022-08-26T01:15:17.334Z,48.32
2022-08-26T01:17:46.173Z,48.48
2022-08-26T01:20:25.364Z,48.56
2022-08-26T01:22:58.166Z,48.56
2022-08-26T01:25:33.778Z,48.56
2022-08-26T01:28:07.157Z,48.65
2022-08-26T01:30:37.024Z,48.66
2022-08-26T01:33:12.337Z,48.81
2022-08-26T01:35:41.873Z,48.49
2022-08-26T01:38:13.042Z,48.97
2022-08-26T01:40:43.915Z,48.97
2022-08-26T01:43:18.390Z,48.66
2022-08-26T01:45:48.767Z,48.81
2022-08-26T01:48:21.578Z,49.16
2022-08-26T01:50:50.816Z,49.07
2022-08-26T01:53:23.159Z,49.58
2022-08-26T01:55:58.252Z,49.39
2022-08-26T01:58:31.919Z,49.40
2022-08-26T02:01:01.346Z,49.37
2022-08-26T02:03:31.968Z,49.54
2022-08-26T02:06:06.211Z,49.31
2022-08-26T02:08:43.616Z,49.50
2022-08-26T02:11:16.743Z,49.10
2022-08-26T02:13:50.251Z,49.44
2022-08-26T02:16:23.703Z,49.56
2022-08-26T02:18:53.320Z,49.32
2022-08-26T02:21:22.202Z,49.47
2022-08-26T02:23:57.466Z,49.39
2022-08-26T02:26:27.191Z,49.49
2022-08-26T02:29:01.621Z,49.26
2022-08-26T02:31:32.879Z,49.29
2022-08-26T02:34:11.636Z,49.21
2022-08-26T02:36:40.919Z,49.04
2022-08-26T02:39:11.248Z,48.90
2022-08-26T02:41:40.343Z,49.01
2022-08-26T02:44:16.985Z,49.01
2022-08-26T02:46:47.183Z,48.84
2022-08-26T02:49:17.049Z,48.81
2022-08-26T02:51:48.620Z,48.87
2022-08-26T02:54:19.064Z,48.78
2022-08-26T02:56:47.432Z,48.92
2022-08-26T02:59:16.067Z,48.86
2022-08-26T03:01:49.777Z,48.70
2022-08-26T03:04:18.699Z,48.67
2022-08-26T03:06:52.878Z,48.77
2022-08-26T03:09:23.358Z,48.72
2022-08-26T03:11:52.143Z,48.91
2022-08-26T03:14:21.602Z,48.79
2022-08-26T03:16:55.134Z,48.86
2022-08-26T03:19:25.401Z,48.85
2022-08-26T03:21:57.876Z,49.03
2022-08-26T03:24:29.141Z,48.65
2022-08-26T03:26:57.780Z,48.81
2022-08-26T03:29:59.619Z,48.70
2022-08-26T03:32:28.151Z,48.83
2022-08-26T03:35:00.418Z,48.71
2022-08-26T03:37:29.134Z,48.73
2022-08-26T03:39:59.194Z,48.43
2022-08-26T03:42:29.624Z,48.73
2022-08-26T03:44:58.384Z,48.31
2022-08-26T03:47:26.650Z,48.69
2022-08-26T03:49:54.783Z,48.67
2022-08-26T03:52:23.895Z,48.61
2022-08-26T03:54:52.363Z,48.59
2022-08-26T03:57:22.399Z,48.72
2022-08-26T03:59:50.919Z,48.70
2022-08-26T04:02:20.625Z,49.06
2022-08-26T04:04:49.054Z,48.86
2022-08-26T04:07:17.356Z,48.72
2022-08-26T04:09:46.891Z,48.92
2022-08-26T04:12:15.114Z,48.93
2022-08-26T04:14:45.330Z,48.73
2022-08-26T04:17:13.621Z,49.00
2022-08-26T04:19:42.394Z,48.98
2022-08-26T04:22:11.118Z,48.67
2022-08-26T04:24:40.233Z,48.97
2022-08-26T04:27:08.956Z,49.19
2022-08-26T04:29:39.281Z,49.06
2022-08-26T04:32:10.500Z,48.86
2022-08-26T04:34:41.570Z,48.92
2022-08-26T04:37:10.780Z,49.08
2022-08-26T04:39:39.902Z,49.32
2022-08-26T04:42:08.800Z,49.27
2022-08-26T04:44:38.461Z,49.28
2022-08-26T04:47:09.506Z,49.51
2022-08-26T04:49:39.566Z,49.40
2022-08-26T04:52:08.113Z,49.48
2022-08-26T04:54:37.826Z,49.42
2022-08-26T04:57:10.639Z,49.40
2022-08-26T04:59:40.127Z,49.19
2022-08-26T05:02:10.271Z,49.08
2022-08-26T05:04:38.689Z,49.21
2022-08-26T05:07:08.211Z,49.33
2022-08-26T05:09:40.628Z,49.17
2022-08-26T05:12:19.120Z,49.39
2022-08-26T05:14:47.296Z,49.19
2022-08-26T05:17:17.230Z,49.41
2022-08-26T05:19:46.148Z,49.27
2022-08-26T05:22:14.778Z,49.53
2022-08-26T05:24:43.579Z,49.19
2022-08-26T05:27:12.058Z,49.22
2022-08-26T05:29:41.118Z,49.21
2022-08-26T05:32:09.398Z,48.93
2022-08-26T05:34:41.083Z,49.32
2022-08-26T05:37:11.426Z,49.22
2022-08-26T05:39:48.831Z,48.96
2022-08-26T05:42:20.052Z,49.11
2022-08-26T05:44:55.713Z,48.86
2022-08-26T05:47:25.893Z,48.90
2022-08-26T05:49:58.402Z,48.84
2022-08-26T05:52:27.864Z,49.06
2022-08-26T05:54:56.392Z,48.87
2022-08-26T05:57:31.070Z,48.88
2022-08-26T05:59:59.702Z,49.01
2022-08-26T06:02:29.346Z,48.99
2022-08-26T06:05:15.757Z,48.77
2022-08-26T06:08:01.776Z,49.23
2022-08-26T06:10:32.822Z,49.25
2022-08-26T06:13:09.356Z,49.47
2022-08-26T06:15:43.753Z,49.56
2022-08-26T06:18:14.860Z,49.40
2022-08-26T06:20:56.799Z,49.62
2022-08-26T06:23:44.175Z,49.64
2022-08-26T06:26:13.242Z,49.85
2022-08-26T06:28:43.539Z,49.79
2022-08-26T06:31:14.140Z,49.88
2022-08-26T06:33:42.651Z,49.72
2022-08-26T06:36:17.411Z,50.09
2022-08-26T06:38:49.169Z,50.31
2022-08-26T06:41:20.250Z,50.04
2022-08-26T06:43:48.919Z,50.04
2022-08-26T06:46:19.799Z,50.49
2022-08-26T06:48:48.082Z,50.43
2022-08-26T06:51:20.639Z,50.61
2022-08-26T06:53:53.833Z,50.73
2022-08-26T06:56:25.852Z,50.76
2022-08-26T06:58:54.195Z,51.07
2022-08-26T07:01:26.921Z,51.07
2022-08-26T07:03:57.887Z,51.18
2022-08-26T07:06:28.248Z,51.27
2022-08-26T07:09:04.132Z,51.46
2022-08-26T07:11:34.007Z,51.42
2022-08-26T07:14:04.517Z,51.33
2022-08-26T07:16:32.908Z,51.27
2022-08-26T07:19:01.282Z,51.43
2022-08-26T07:21:33.176Z,51.30
2022-08-26T07:24:02.333Z,51.31
2022-08-26T07:26:32.213Z,51.62
2022-08-26T07:29:04.723Z,51.82
2022-08-26T07:31:39.538Z,51.82
2022-08-26T07:34:11.060Z,52.11
2022-08-26T07:36:42.830Z,51.97
2022-08-26T07:39:12.220Z,52.00
2022-08-26T07:41:42.134Z,51.87
2022-08-26T07:44:11.124Z,52.06
2022-08-26T07:46:44.250Z,51.71
2022-08-26T07:49:20.561Z,51.79
2022-08-26T07:51:54.738Z,52.08
2022-08-26T07:54:26.681Z,51.46
2022-08-26T07:56:55.919Z,51.58
2022-08-26T07:59:24.606Z,51.82
2022-08-26T08:01:57.636Z,51.71
2022-08-26T08:04:28.456Z,51.61
2022-08-26T08:07:00.434Z,51.84
2022-08-26T08:09:28.824Z,51.47
2022-08-26T08:11:58.453Z,51.65
2022-08-26T08:14:29.231Z,51.83
2022-08-26T08:16:58.392Z,51.58
2022-08-26T08:19:36.822Z,51.58
2022-08-26T08:22:28.905Z,51.72
2022-08-26T08:25:06.180Z,51.68
2022-08-26T08:27:35.493Z,52.01
2022-08-26T08:30:04.500Z,51.76
2022-08-26T08:32:37.246Z,51.80
2022-08-26T08:35:10.735Z,51.79
2022-08-26T08:37:43.225Z,52.15
2022-08-26T08:40:15.808Z,52.08
2022-08-26T08:42:54.845Z,51.95
2022-08-26T08:45:35.895Z,51.97
2022-08-26T08:48:08.282Z,51.87
2022-08-26T08:50:46.589Z,51.67
2022-08-26T08:53:32.184Z,51.59
2022-08-26T08:56:23.311Z,51.46
2022-08-26T08:58:57.934Z,51.07
2022-08-26T09:01:37.232Z,51.34
2022-08-26T09:04:20.834Z,50.93
2022-08-26T09:06:51.281Z,50.94
2022-08-26T09:09:32.210Z,50.58
2022-08-26T09:12:02.852Z,50.50
2022-08-26T09:14:33.007Z,50.29
2022-08-26T09:17:09.277Z,50.53
2022-08-26T09:19:44.472Z,50.38
2022-08-26T09:24:53.475Z,50.13
2022-08-26T09:27:46.456Z,50.12
2022-08-26T09:30:25.549Z,49.95
2022-08-26T09:33:03.696Z,49.74
2022-08-26T09:35:41.540Z,49.65
2022-08-26T09:38:25.219Z,49.91
2022-08-26T09:41:03.564Z,50.05
2022-08-26T09:43:33.878Z,49.87
2022-08-26T09:46:18.647Z,50.03
2022-08-26T09:48:47.544Z,50.21
2022-08-26T09:51:33.571Z,49.59
2022-08-26T09:54:05.565Z,49.26
2022-08-26T09:56:43.807Z,48.65
2022-08-26T09:59:13.940Z,48.25
2022-08-26T10:01:45.018Z,47.97
2022-08-26T10:04:16.354Z,47.72
2022-08-26T10:06:57.871Z,47.65
2022-08-26T10:09:28.589Z,47.17
2022-08-26T10:12:05.742Z,46.70
2022-08-26T10:14:39.963Z,46.74
2022-08-26T10:17:12.722Z,46.19
2022-08-26T10:19:56.461Z,46.04
2022-08-26T10:22:50.578Z,45.93
2022-08-26T10:25:26.269Z,45.67
2022-08-26T10:28:02.460Z,45.43
2022-08-26T10:30:36.295Z,45.33
2022-08-26T10:33:08.604Z,45.31
2022-08-26T10:35:44.143Z,45.37
2022-08-26T10:38:19.924Z,45.45
2022-08-26T10:40:56.370Z,45.39
2022-08-26T10:43:30.544Z,45.71
2022-08-26T10:46:04.563Z,45.70
2022-08-26T10:48:40.732Z,45.12
2022-08-26T10:51:11.498Z,44.83
2022-08-26T10:53:51.397Z,43.42
2022-08-26T10:56:31.342Z,42.59
2022-08-26T10:59:12.724Z,42.42
2022-08-26T11:01:51.164Z,42.63
2022-08-26T11:04:48.385Z,42.82
2022-08-26T11:07:42.017Z,42.45
2022-08-26T11:10:15.627Z,42.68
2022-08-26T11:13:01.310Z,43.54
2022-08-26T11:16:11.150Z,43.92
2022-08-26T11:18:54.783Z,44.41
2022-08-26T11:21:49.469Z,43.88
2022-08-26T11:24:48.859Z,43.44
2022-08-26T11:28:08.810Z,42.76
2022-08-26T11:30:43.877Z,42.91
2022-08-26T11:33:58.280Z,42.14
2022-08-26T11:36:43.102Z,41.93
2022-08-26T11:39:24.250Z,41.79
2022-08-26T11:42:00.264Z,41.80
2022-08-26T11:44:38.373Z,41.61
2022-08-26T11:47:14.566Z,41.51
2022-08-26T11:49:45.386Z,40.82
2022-08-26T11:52:20.885Z,40.84
2022-08-26T11:55:05.706Z,40.51
2022-08-26T11:57:37.357Z,40.27
2022-08-26T12:00:12.012Z,40.50
2022-08-26T12:02:42.702Z,40.28
2022-08-26T12:05:11.820Z,40.06
2022-08-26T12:07:43.012Z,40.72
2022-08-26T12:10:12.772Z,40.97
2022-08-26T12:12:45.267Z,41.61
2022-08-26T12:15:19.902Z,41.53
2022-08-26T12:17:54.551Z,40.51
2022-08-26T12:20:45.957Z,41.03
2022-08-26T12:23:29.366Z,41.03
2022-08-26T12:26:07.253Z,40.41
2022-08-26T12:28:44.352Z,41.15
2022-08-26T12:31:21.750Z,41.05
2022-08-26T12:33:50.734Z,40.78
2022-08-26T12:36:27.575Z,40.25
2022-08-26T12:38:58.742Z,40.04
2022-08-26T12:41:41.981Z,39.58
2022-08-26T12:44:10.793Z,39.52
2022-08-26T12:46:39.287Z,39.64
2022-08-26T12:49:09.771Z,39.51
2022-08-26T12:51:45.293Z,39.10
2022-08-26T12:54:19.867Z,38.37
2022-08-26T12:56:48.327Z,37.96
2022-08-26T12:59:25.200Z,38.19
2022-08-26T13:01:54.879Z,38.65
2022-08-26T13:04:39.182Z,38.80
2022-08-26T13:07:15.794Z,38.46
2022-08-26T13:09:45.873Z,37.88
2022-08-26T13:12:25.386Z,38.06
2022-08-26T13:14:54.538Z,38.09
2022-08-26T13:17:23.098Z,38.19
2022-08-26T13:19:51.439Z,38.28
2022-08-26T13:22:24.353Z,38.52
2022-08-26T13:24:57.327Z,38.81
2022-08-26T13:27:27.384Z,39.06
2022-08-26T13:29:59.559Z,38.54
2022-08-26T13:32:28.663Z,38.45
2022-08-26T13:34:58.725Z,37.74
2022-08-26T13:37:34.913Z,37.74
2022-08-26T13:40:07.219Z,37.13
2022-08-26T13:45:04.128Z,37.11
2022-08-26T13:47:32.346Z,37.10
2022-08-26T13:50:00.707Z,36.81
2022-08-26T13:52:30.558Z,38.05
2022-08-26T13:55:01.351Z,38.86
2022-08-26T13:57:31.643Z,38.19
2022-08-26T14:00:00.331Z,37.83
2022-08-26T14:02:31.175Z,37.39
2022-08-26T14:04:59.474Z,38.33
2022-08-26T14:07:27.685Z,38.02
2022-08-26T14:09:55.847Z,36.72
2022-08-26T14:12:24.177Z,35.50
2022-08-26T14:14:53.918Z,34.71
2022-08-26T14:17:24.537Z,33.14
2022-08-26T14:19:53.736Z,32.16
2022-08-26T14:22:24.034Z,33.73
2022-08-26T14:24:52.465Z,33.23
2022-08-26T14:27:20.693Z,33.52
2022-08-26T14:29:54.186Z,33.38
2022-08-26T14:32:26.149Z,33.97
2022-08-26T14:34:55.988Z,34.95
2022-08-26T14:37:24.479Z,34.65
2022-08-26T14:39:53.017Z,34.23
2022-08-26T14:42:25.910Z,33.98
2022-08-26T14:45:04.894Z,33.88
2022-08-26T14:47:33.211Z,34.35
2022-08-26T14:50:01.932Z,34.88
2022-08-26T14:52:50.671Z,34.56
2022-08-26T14:55:17.899Z,33.97
2022-08-26T14:57:46.174Z,33.47
2022-08-26T15:00:17.154Z,34.36
2022-08-26T15:02:45.761Z,35.63
2022-08-26T15:05:14.539Z,34.01
2022-08-26T15:07:44.038Z,34.41
2022-08-26T15:10:15.083Z,34.11
2022-08-26T15:12:43.884Z,34.05
2022-08-26T15:15:17.375Z,34.83
2022-08-26T15:17:47.154Z,34.41
2022-08-26T15:20:17.832Z,34.05
2022-08-26T15:22:46.416Z,32.73
2022-08-26T15:25:15.514Z,31.98
2022-08-26T15:27:43.782Z,32.67
2022-08-26T15:30:19.645Z,32.52
2022-08-26T15:32:51.870Z,31.36
2022-08-26T15:35:26.130Z,31.46
2022-08-26T15:37:56.420Z,31.76
2022-08-26T15:40:27.303Z,30.32
2022-08-26T15:43:17.870Z,30.46
2022-08-26T15:45:46.820Z,29.49
2022-08-26T15:48:16.709Z,30.17
2022-08-26T15:50:52.078Z,30.96
2022-08-26T15:53:22.726Z,32.41
2022-08-26T15:55:53.733Z,34.39
2022-08-26T15:58:22.761Z,35.17
2022-08-26T16:00:53.949Z,35.51
2022-08-26T16:03:24.014Z,35.25
2022-08-26T16:05:52.640Z,34.35
2022-08-26T16:08:22.440Z,34.46
2022-08-26T16:10:51.525Z,34.61
2022-08-26T16:13:21.305Z,34.97
2022-08-26T16:15:52.413Z,34.67
2022-08-26T16:18:23.540Z,34.58
2022-08-26T16:21:05.003Z,34.56
2022-08-26T16:23:45.028Z,35.54
2022-08-26T16:26:17.143Z,36.67
2022-08-26T16:28:46.343Z,37.78
2022-08-26T16:31:18.847Z,36.52
2022-08-26T16:33:50.685Z,36.16
2022-08-26T16:36:28.778Z,35.86
2022-08-26T16:38:57.522Z,35.59
2022-08-26T16:41:31.167Z,35.56
2022-08-26T16:44:05.558Z,33.57
2022-08-26T16:46:39.771Z,32.31
2022-08-26T16:49:11.837Z,30.93
2022-08-26T16:51:50.903Z,29.64
2022-08-26T16:54:21.986Z,28.92
2022-08-26T16:59:50.398Z,29.01
2022-08-26T17:02:22.790Z,28.77
2022-08-26T17:05:16.920Z,29.00
2022-08-26T17:08:27.453Z,29.12
2022-08-26T17:11:37.918Z,29.26
2022-08-26T17:14:11.160Z,28.92
2022-08-26T17:16:57.120Z,28.92
2022-08-26T17:19:46.937Z,28.86
2022-08-26T17:22:21.295Z,29.26
2022-08-26T17:24:51.887Z,29.34
2022-08-26T17:27:25.378Z,29.31
2022-08-26T17:33:00.759Z,29.54
2022-08-26T17:35:58.502Z,28.96
2022-08-26T17:38:32.258Z,29.02
2022-08-26T17:41:11.805Z,28.49
2022-08-26T17:43:41.654Z,28.88
2022-08-26T17:46:17.257Z,30.11
2022-08-26T17:48:49.889Z,30.31
2022-08-26T17:51:21.729Z,30.92
2022-08-26T17:56:57.527Z,31.58
2022-08-26T17:59:39.119Z,32.14
2022-08-26T18:02:12.418Z,31.75
2022-08-26T18:04:41.023Z,32.03
2022-08-26T18:07:13.154Z,32.44
2022-08-26T18:09:41.872Z,33.02
2022-08-26T18:12:13.403Z,33.25
2022-08-26T18:14:44.680Z,33.54
2022-08-26T18:17:20.299Z,33.20
2022-08-26T18:19:51.781Z,33.31
2022-08-26T18:22:24.018Z,33.68
2022-08-26T18:24:59.025Z,33.85
2022-08-26T18:27:29.799Z,33.76
2022-08-26T18:29:59.081Z,34.63
2022-08-26T18:32:35.008Z,34.73
2022-08-26T18:35:05.992Z,34.48
2022-08-26T18:37:35.617Z,34.60
2022-08-26T18:40:05.666Z,34.57
2022-08-26T18:42:36.040Z,34.79
2022-08-26T18:45:10.775Z,35.74
2022-08-26T18:47:45.897Z,35.33
2022-08-26T18:50:14.305Z,35.49
2022-08-26T18:52:45.699Z,36.00
2022-08-26T18:55:14.497Z,37.29
2022-08-26T18:57:44.277Z,37.51
2022-08-26T19:00:14.603Z,38.29
2022-08-26T19:02:43.557Z,38.55
2022-08-26T19:05:21.530Z,39.49
2022-08-26T19:07:50.855Z,39.62
2022-08-26T19:10:19.990Z,40.15
2022-08-26T19:12:54.474Z,40.51
2022-08-26T19:15:24.217Z,41.75
2022-08-26T19:17:53.692Z,42.61
2022-08-26T19:20:23.047Z,43.47
2022-08-26T19:22:57.459Z,43.77
2022-08-26T19:25:58.172Z,43.99
2022-08-26T19:28:28.683Z,44.58
2022-08-26T19:30:59.065Z,45.03
2022-08-26T19:33:28.893Z,45.36
2022-08-26T19:35:59.328Z,45.70
2022-08-26T19:38:28.872Z,45.91
2022-08-26T19:40:59.061Z,46.52
2022-08-26T19:43:29.825Z,47.06
2022-08-26T19:46:01.191Z,47.40
2022-08-26T19:48:29.830Z,48.08
2022-08-26T19:50:58.426Z,47.81
2022-08-26T19:53:27.004Z,47.99
2022-08-26T19:56:03.961Z,48.15
2022-08-26T19:58:34.662Z,48.56
2022-08-26T20:01:04.388Z,48.51
2022-08-26T20:03:33.430Z,48.82
2022-08-26T20:06:05.191Z,48.94
2022-08-26T20:08:39.417Z,49.41
2022-08-26T20:11:19.479Z,50.10
2022-08-26T20:13:51.673Z,49.76
2022-08-26T20:16:22.694Z,50.01
2022-08-26T20:19:09.517Z,50.47
2022-08-26T20:21:43.855Z,50.17
2022-08-26T20:24:15.144Z,49.87
2022-08-26T20:26:46.259Z,50.80
2022-08-26T20:29:18.638Z,50.95
2022-08-26T20:31:51.280Z,51.14
2022-08-26T20:34:27.864Z,50.98
2022-08-26T20:36:57.268Z,51.24
2022-08-26T20:39:30.142Z,51.20
2022-08-26T20:41:59.585Z,51.33
2022-08-26T20:44:29.956Z,51.34
2022-08-26T20:46:59.317Z,51.19
2022-08-26T20:49:29.254Z,51.00
2022-08-26T20:51:58.408Z,51.13
2022-08-26T20:54:28.519Z,50.96
2022-08-26T20:57:00.472Z,50.69
2022-08-26T20:59:33.363Z,51.16
2022-08-26T21:02:23.467Z,50.85
2022-08-26T21:04:52.019Z,50.93
2022-08-26T21:07:29.595Z,51.17
2022-08-26T21:10:02.934Z,51.06
2022-08-26T21:12:35.672Z,51.05
2022-08-26T21:15:11.391Z,51.06
2022-08-26T21:17:43.861Z,51.23
2022-08-26T21:20:12.388Z,51.26
2022-08-26T21:22:46.416Z,51.17
2022-08-26T21:25:24.086Z,51.26
2022-08-26T21:27:52.205Z,51.18
2022-08-26T21:30:23.882Z,51.21
2022-08-26T21:32:53.510Z,51.19
2022-08-26T21:35:21.684Z,51.29
2022-08-26T21:37:56.378Z,51.12
2022-08-26T21:40:25.242Z,51.03
2022-08-26T21:42:55.967Z,51.19
2022-08-26T21:45:33.096Z,51.15
2022-08-26T21:48:05.501Z,51.07
2022-08-26T21:50:34.701Z,50.80
2022-08-26T21:53:09.703Z,51.19
2022-08-26T21:55:40.225Z,51.11
2022-08-26T21:58:25.669Z,51.30
2022-08-26T22:00:57.689Z,51.18
2022-08-26T22:03:28.983Z,51.15
2022-08-26T22:06:01.699Z,51.22
2022-08-26T22:08:37.827Z,51.34
2022-08-26T22:11:10.850Z,51.32
2022-08-26T22:13:45.862Z,51.52
2022-08-26T22:16:30.860Z,51.47
2022-08-26T22:19:05.809Z,51.72
2022-08-26T22:21:58.611Z,51.62
2022-08-26T22:24:44.023Z,51.81
2022-08-26T22:27:23.371Z,52.18
2022-08-26T22:30:11.739Z,52.19
2022-08-26T22:33:20.418Z,52.74
2022-08-26T22:35:56.900Z,52.39
2022-08-26T22:42:28.617Z,52.46
2022-08-26T22:45:31.502Z,52.41
2022-08-26T22:48:11.184Z,52.49
2022-08-26T22:50:43.436Z,52.35
2022-08-26T22:53:35.859Z,52.80
2022-08-26T22:56:21.998Z,52.87
2022-08-26T22:59:07.996Z,53.00
2022-08-26T23:01:50.530Z,52.89
2022-08-26T23:04:57.545Z,53.05
2022-08-26T23:07:34.748Z,52.97
2022-08-26T23:10:15.572Z,53.03
2022-08-26T23:12:51.557Z,52.97
2022-08-26T23:15:24.144Z,52.97
2022-08-26T23:18:10.562Z,52.78
2022-08-26T23:20:44.655Z,52.72
2022-08-26T23:23:37.171Z,52.60
2022-08-26T23:26:08.623Z,52.45
2022-08-26T23:28:39.812Z,52.60
2022-08-26T23:31:11.619Z,52.57
2022-08-26T23:34:00.264Z,52.64
2022-08-26T23:36:35.080Z,52.58
2022-08-26T23:39:10.550Z,52.68
2022-08-26T23:41:39.024Z,52.70
2022-08-26T23:44:09.819Z,52.84
2022-08-26T23:46:39.214Z,52.47
2022-08-26T23:49:10.206Z,52.88
2022-08-26T23:52:02.927Z,52.86
2022-08-26T23:54:34.172Z,52.86
2022-08-26T23:57:02.631Z,53.29
2022-08-26T23:59:31.226Z,53.14
